createdAt,value
2022-10-22T00:00:26.880Z,976.16
2022-10-22T00:05:58.829Z,976.26
2022-10-22T00:11:34.856Z,976.21
2022-10-22T00:17:12.430Z,975.88
2022-10-22T00:22:38.822Z,975.88
2022-10-22T00:28:10.109Z,976.45
2022-10-22T00:33:41.789Z,976.48
2022-10-22T00:39:13.706Z,976.38
2022-10-22T00:44:45.478Z,976.22
2022-10-22T00:50:17.006Z,976.34
2022-10-22T00:55:48.563Z,976.42
2022-10-22T01:01:20.607Z,976.17
2022-10-22T01:06:52.305Z,976.11
2022-10-22T01:12:28.337Z,976.05
2022-10-22T01:17:59.846Z,975.83
2022-10-22T01:23:31.582Z,975.68
2022-10-22T01:29:03.202Z,975.94
2022-10-22T01:34:35.126Z,976.17
2022-10-22T01:40:07.070Z,976.4
2022-10-22T01:45:38.593Z,976.36
2022-10-22T01:51:10.158Z,976.78
2022-10-22T01:56:41.889Z,976.99
2022-10-22T02:02:14.049Z,977.12
2022-10-22T02:07:45.886Z,977.51
2022-10-22T02:13:21.693Z,977.3
2022-10-22T02:18:53.350Z,977.26
2022-10-22T02:24:25.059Z,977.1
2022-10-22T02:29:56.801Z,977.3
2022-10-22T02:35:28.529Z,977.09
2022-10-22T02:41:00.250Z,977.38
2022-10-22T02:46:31.970Z,977.46
2022-10-22T02:52:03.478Z,977.59
2022-10-22T02:57:35.151Z,977.19
2022-10-22T03:03:07.257Z,977.29
2022-10-22T03:08:38.790Z,977.32
2022-10-22T03:14:15.259Z,977.01
2022-10-22T03:19:46.993Z,977.15
2022-10-22T03:25:18.798Z,977.07
2022-10-22T03:30:49.925Z,977.46
2022-10-22T03:36:21.789Z,977.36
2022-10-22T03:41:53.578Z,977.09
2022-10-22T03:47:25.398Z,976.95
2022-10-22T03:52:56.928Z,977.05
2022-10-22T03:58:28.798Z,977.34
2022-10-22T04:04:00.485Z,977.21
2022-10-22T04:09:32.742Z,977.11
2022-10-22T04:15:08.133Z,977.0
2022-10-22T04:20:40.050Z,976.86
2022-10-22T04:26:11.517Z,977.03
2022-10-22T04:31:43.694Z,977.28
2022-10-22T04:37:15.187Z,977.1
2022-10-22T04:42:46.934Z,976.81
2022-10-22T04:48:18.550Z,977.08
2022-10-22T04:53:50.274Z,977.15
2022-10-22T04:59:22.103Z,977.0
2022-10-22T05:04:53.934Z,976.9
2022-10-22T05:10:25.346Z,976.84
2022-10-22T05:16:01.644Z,976.9
2022-10-22T05:21:33.221Z,977.05
2022-10-22T05:27:05.135Z,977.09
2022-10-22T05:32:37.051Z,977.2
2022-10-22T05:38:08.455Z,977.31
2022-10-22T05:43:40.079Z,977.41
2022-10-22T05:49:11.828Z,977.63
2022-10-22T05:54:43.738Z,978.06
2022-10-22T06:00:17.428Z,977.84
2022-10-22T06:05:47.170Z,978.14
2022-10-22T06:11:18.937Z,978.1
2022-10-22T06:16:55.118Z,978.24
2022-10-22T06:22:26.841Z,978.37
2022-10-22T06:27:58.327Z,978.47
2022-10-22T06:33:30.116Z,978.63
2022-10-22T06:39:01.936Z,978.95
2022-10-22T06:44:33.460Z,979.39
2022-10-22T06:50:05.540Z,979.41
2022-10-22T06:55:37.188Z,979.73
2022-10-22T07:01:09.340Z,979.81
2022-10-22T07:06:40.460Z,980.1
2022-10-22T07:12:12.104Z,980.28
2022-10-22T07:17:48.422Z,980.28
2022-10-22T07:23:20.002Z,980.5
2022-10-22T07:28:51.702Z,980.85
2022-10-22T07:34:23.487Z,980.81
2022-10-22T07:39:55.438Z,980.75
2022-10-22T07:45:26.914Z,981.0
2022-10-22T07:50:58.630Z,980.73
2022-10-22T07:56:30.238Z,980.65
2022-10-22T08:02:02.160Z,980.75
2022-10-22T08:07:33.857Z,980.89
2022-10-22T08:13:05.557Z,981.16
2022-10-22T08:18:41.626Z,981.39
2022-10-22T08:24:13.510Z,981.48
2022-10-22T08:29:45.132Z,981.4
2022-10-22T08:35:18.598Z,982.0
2022-10-22T08:46:20.434Z,981.88
2022-10-22T08:51:52.209Z,981.91
2022-10-22T08:57:23.788Z,981.68
2022-10-22T09:02:55.717Z,981.85
2022-10-22T09:08:27.101Z,981.83
2022-10-22T09:13:58.917Z,981.85
2022-10-22T09:19:35.267Z,981.86
2022-10-22T09:25:06.762Z,982.32
2022-10-22T09:30:38.823Z,982.07
2022-10-22T09:36:10.313Z,982.18
2022-10-22T09:41:42.029Z,982.27
2022-10-22T09:47:13.933Z,982.08
2022-10-22T09:52:45.562Z,982.6
2022-10-22T09:58:17.138Z,982.54
2022-10-22T10:03:48.762Z,982.66
2022-10-22T10:09:20.669Z,982.46
2022-10-22T10:14:52.183Z,982.57
2022-10-22T10:20:28.334Z,982.01
2022-10-22T10:25:59.838Z,982.43
2022-10-22T10:31:31.862Z,982.05
2022-10-22T10:37:03.337Z,982.44
2022-10-22T10:42:35.095Z,982.65
2022-10-22T10:48:06.781Z,982.89
2022-10-22T10:53:38.570Z,982.68
2022-10-22T10:59:10.320Z,982.59
2022-10-22T11:04:42.039Z,982.78
2022-10-22T11:10:13.869Z,982.45
2022-10-22T11:15:45.547Z,982.16
2022-10-22T11:21:21.492Z,982.51
2022-10-22T11:26:53.444Z,982.72
2022-10-22T11:32:24.871Z,982.19
2022-10-22T11:37:56.974Z,982.64
2022-10-22T11:43:28.505Z,981.8
2022-10-22T11:49:00.226Z,981.67
2022-10-22T11:54:31.854Z,982.29
2022-10-22T12:00:03.599Z,982.24
2022-10-22T12:05:35.455Z,981.47
2022-10-22T12:11:07.094Z,981.79
2022-10-22T12:16:57.993Z,981.22
2022-10-22T12:22:15.052Z,980.85
2022-10-22T12:27:46.786Z,981.66
2022-10-22T12:33:18.370Z,981.54
2022-10-22T12:38:50.125Z,981.22
2022-10-22T12:44:21.832Z,980.04
2022-10-22T12:49:53.564Z,980.81
2022-10-22T12:55:25.477Z,980.6
2022-10-22T13:00:57.259Z,980.96
2022-10-22T13:06:28.716Z,980.33
2022-10-22T13:12:00.657Z,980.23
2022-10-22T13:17:32.201Z,980.11
2022-10-22T13:23:10.213Z,980.44
2022-10-22T13:28:41.963Z,980.44
2022-10-22T13:34:17.731Z,980.13
2022-10-22T13:39:45.490Z,980.15
2022-10-22T13:45:17.126Z,980.39
2022-10-22T13:50:48.906Z,979.99
2022-10-22T13:56:20.590Z,979.97
2022-10-22T14:01:52.402Z,979.77
2022-10-22T14:07:24.054Z,979.62
2022-10-22T14:12:55.811Z,979.73
2022-10-22T14:18:27.547Z,979.14
2022-10-22T14:24:04.495Z,979.4
2022-10-22T14:29:35.359Z,979.4
2022-10-22T14:35:07.142Z,979.11
2022-10-22T14:40:38.799Z,979.08
2022-10-22T14:46:10.562Z,979.16
2022-10-22T14:51:42.283Z,978.88
2022-10-22T14:57:14.021Z,978.81
2022-10-22T15:02:46.005Z,978.53
2022-10-22T15:08:17.883Z,978.55
2022-10-22T15:13:49.262Z,978.83
2022-10-22T15:19:20.861Z,978.42
2022-10-22T15:24:59.058Z,978.02
2022-10-22T15:30:31.166Z,978.24
2022-10-22T15:36:02.854Z,978.34
2022-10-22T15:41:34.349Z,977.85
2022-10-22T15:47:06.104Z,978.0
2022-10-22T15:52:37.649Z,977.85
2022-10-22T15:58:09.575Z,977.56
2022-10-22T16:03:41.626Z,977.32
2022-10-22T16:09:13.162Z,977.18
2022-10-22T16:14:44.471Z,977.1
2022-10-22T16:20:16.219Z,976.88
2022-10-22T16:25:52.394Z,976.71
2022-10-22T16:31:24.250Z,976.64
2022-10-22T16:36:55.937Z,976.65
2022-10-22T16:42:27.646Z,976.6
2022-10-22T16:47:59.280Z,976.77
2022-10-22T16:53:31.128Z,976.7
2022-10-22T16:59:02.773Z,976.7
2022-10-22T17:04:34.594Z,976.62
2022-10-22T17:10:06.485Z,976.76
2022-10-22T17:15:38.093Z,976.75
2022-10-22T17:21:09.712Z,976.58
2022-10-22T17:26:47.893Z,976.69
2022-10-22T17:32:19.632Z,976.62
2022-10-22T17:37:51.182Z,976.57
2022-10-22T17:43:23.143Z,976.56
2022-10-22T17:48:54.816Z,976.57
2022-10-22T17:54:26.434Z,976.62
2022-10-22T17:59:58.339Z,976.51
2022-10-22T18:05:30.174Z,976.58
2022-10-22T18:11:01.829Z,976.69
2022-10-22T18:16:33.519Z,976.63
2022-10-22T18:22:05.283Z,976.49
2022-10-22T18:27:42.375Z,976.43
2022-10-22T18:33:12.907Z,976.42
2022-10-22T18:38:44.703Z,976.44
2022-10-22T18:44:16.279Z,976.43
2022-10-22T18:49:48.135Z,976.23
2022-10-22T18:55:19.935Z,976.21
2022-10-22T19:00:51.804Z,976.04
2022-10-22T19:06:23.368Z,976.17
2022-10-22T19:11:55.158Z,976.11
2022-10-22T19:17:26.820Z,976.06
2022-10-22T19:22:58.459Z,976.1
2022-10-22T19:28:34.548Z,976.28
2022-10-22T19:34:06.387Z,976.33
2022-10-22T19:39:37.991Z,976.12
2022-10-22T19:45:09.971Z,975.98
2022-10-22T19:50:41.434Z,976.14
2022-10-22T19:56:13.139Z,975.99
2022-10-22T20:01:44.830Z,976.11
2022-10-22T20:07:16.715Z,976.09
2022-10-22T20:12:48.346Z,976.17
2022-10-22T20:18:20.164Z,976.18
2022-10-22T20:23:51.897Z,976.08
2022-10-22T20:29:27.926Z,976.28
2022-10-22T20:34:59.590Z,976.19
2022-10-22T20:40:31.386Z,976.31
2022-10-22T20:46:03.102Z,976.35
2022-10-22T20:51:34.787Z,976.55
2022-10-22T20:57:06.500Z,976.56
2022-10-22T21:02:38.307Z,976.25
2022-10-22T21:08:10.151Z,976.33
2022-10-22T21:13:41.703Z,976.19
2022-10-22T21:19:13.445Z,976.47
2022-10-22T21:24:45.379Z,976.56
2022-10-22T21:30:23.398Z,976.43
2022-10-22T21:35:55.116Z,976.43
2022-10-22T21:41:26.902Z,976.53
2022-10-22T21:46:58.582Z,976.36
2022-10-22T21:52:30.178Z,976.16
2022-10-22T21:58:01.938Z,976.37
2022-10-22T22:03:33.746Z,976.37
2022-10-22T22:09:05.815Z,976.56
2022-10-22T22:14:37.161Z,976.78
2022-10-22T22:20:09.009Z,976.85
2022-10-22T22:25:40.582Z,976.88
2022-10-22T22:31:16.674Z,977.13
2022-10-22T22:36:48.538Z,977.16
2022-10-22T22:42:20.250Z,977.17
2022-10-22T22:47:51.804Z,977.16
2022-10-22T22:53:23.686Z,976.69
2022-10-22T22:58:55.311Z,976.56
2022-10-22T23:04:27.101Z,976.53
2022-10-22T23:09:59.055Z,976.72
2022-10-22T23:15:30.427Z,976.93
2022-10-22T23:21:02.234Z,976.55
2022-10-22T23:26:33.906Z,976.64
2022-10-22T23:32:12.308Z,976.79
2022-10-22T23:37:44.729Z,976.9
2022-10-22T23:43:15.496Z,976.69
2022-10-22T23:48:47.189Z,976.69
2022-10-22T23:54:18.958Z,976.66
2022-10-22T23:59:50.796Z,976.54
